Time;durP1;ratioP1;P1;durP2;ratioP2;P2;SDS_P1;SDS_P2;PMS_P1;PMS_P2;Temp;Humidity;BMP_temperature;BMP_pressure;BME280_temperature;BME280_humidity;BME280_pressure;Samples;Min_cycle;Max_cycle;Signal;HPM_P1;HPM_P2
2021/11/20 00:01:06;;;;;;;3.20;2.25;;;;;;;23.17;45.21;95472.31;5004312;28;20405;-68
2021/11/20 00:03:32;;;;;;;4.10;2.50;;;;;;;23.16;45.24;95477.03;5004667;28;20784;-68
2021/11/20 00:05:58;;;;;;;2.97;2.10;;;;;;;23.14;45.34;95484.97;5004032;28;20026;-68
2021/11/20 00:08:24;;;;;;;3.70;2.67;;;;;;;23.12;45.18;95476.56;4999287;28;20497;-68
2021/11/20 00:10:52;;;;;;;3.88;2.40;;;;;;;23.10;45.11;95472.84;4999927;28;20076;-68
2021/11/20 00:13:17;;;;;;;3.95;2.30;;;;;;;23.08;45.55;95476.03;4985318;28;20034;-68
2021/11/20 00:15:49;;;;;;;3.65;2.33;;;;;;;23.07;45.29;95469.09;4984652;28;20628;-68
2021/11/20 00:18:15;;;;;;;3.78;2.50;;;;;;;23.03;45.59;95474.06;4985945;28;20092;-68
2021/11/20 00:20:48;;;;;;;2.50;2.03;;;;;;;23.02;45.25;95488.94;4985523;28;20030;-68
2021/11/20 00:23:18;;;;;;;3.92;2.38;;;;;;;23.01;45.42;95487.44;4985470;28;20485;-68
2021/11/20 00:25:52;;;;;;;4.50;2.78;;;;;;;22.98;45.41;95482.97;4986135;28;20167;-68
2021/11/20 00:28:28;;;;;;;3.38;2.00;;;;;;;22.97;45.45;95475.28;4999580;28;20623;-68
2021/11/20 00:30:57;;;;;;;3.60;2.75;;;;;;;22.95;45.52;95478.50;4969178;28;20030;-68
2021/11/20 00:33:25;;;;;;;3.35;2.33;;;;;;;22.94;45.22;95468.88;4985760;28;20501;-68
2021/11/20 00:35:52;;;;;;;3.10;2.50;;;;;;;22.92;45.14;95471.31;5000519;28;21414;-68
2021/11/20 00:38:18;;;;;;;3.88;2.40;;;;;;;22.90;45.43;95468.34;5000488;28;20018;-68
2021/11/20 00:40:50;;;;;;;3.60;2.40;;;;;;;22.89;45.08;95469.56;4984990;28;20061;-68
2021/11/20 00:43:16;;;;;;;3.50;2.15;;;;;;;22.89;45.39;95480.47;4985170;28;20436;-68
2021/11/20 00:45:42;;;;;;;4.60;3.00;;;;;;;22.88;45.37;95480.22;4985224;28;20034;-68
2021/11/20 00:48:07;;;;;;;3.22;2.17;;;;;;;22.84;45.35;95477.75;4985173;28;20065;-68
2021/11/20 00:50:35;;;;;;;4.57;2.58;;;;;;;22.84;45.26;95483.19;4999859;28;20026;-68
2021/11/20 00:53:00;;;;;;;4.07;2.60;;;;;;;22.83;45.13;95476.25;4967815;28;20033;-68
2021/11/20 00:55:27;;;;;;;3.50;2.35;;;;;;;22.82;45.23;95468.59;4985327;28;20026;-68
2021/11/20 00:57:53;;;;;;;4.20;2.50;;;;;;;22.79;45.15;95470.31;5000393;28;20077;-68
2021/11/20 01:02:57;;;;;;;2.83;2.30;;;;;;;22.78;45.21;95462.63;5223844;22;20054;-61
2021/11/20 01:05:23;;;;;;;3.30;2.38;;;;;;;22.76;45.20;95459.66;5004309;28;20034;-62
2021/11/20 01:07:48;;;;;;;3.72;2.50;;;;;;;22.75;45.35;95461.66;5005085;28;20022;-61
2021/11/20 01:10:16;;;;;;;4.03;2.40;;;;;;;22.76;45.12;95454.22;5004863;28;20530;-61
2021/11/20 01:12:42;;;;;;;3.53;2.40;;;;;;;22.74;45.43;95456.72;5003933;28;20018;-61
2021/11/20 01:15:10;;;;;;;3.60;2.42;;;;;;;22.73;45.54;95463.38;5005027;28;20451;-61
2021/11/20 01:17:36;;;;;;;3.22;2.17;;;;;;;22.73;45.49;95469.56;5005176;28;20030;-61
2021/11/20 01:20:04;;;;;;;3.63;2.38;;;;;;;22.71;45.47;95460.41;5004696;28;20092;-61
2021/11/20 01:22:29;;;;;;;3.03;2.20;;;;;;;22.70;45.40;95456.94;5004974;28;20046;-61
2021/11/20 01:24:55;;;;;;;3.00;2.10;;;;;;;22.68;45.51;95451.25;5004946;28;20030;-61
2021/11/20 01:27:22;;;;;;;3.78;2.65;;;;;;;22.68;45.31;95453.25;5003945;28;20022;-61
2021/11/20 01:29:47;;;;;;;3.67;2.60;;;;;;;22.65;45.55;95459.66;5003329;28;20030;-61
2021/11/20 01:32:13;;;;;;;3.65;2.53;;;;;;;22.66;45.41;95456.44;5003300;28;20499;-61
2021/11/20 01:34:42;;;;;;;4.00;2.55;;;;;;;22.66;44.99;95461.13;5004906;28;20033;-61
2021/11/20 01:37:08;;;;;;;4.37;2.50;;;;;;;22.64;45.39;95464.34;5003768;28;20037;-61
2021/11/20 01:39:35;;;;;;;3.38;2.38;;;;;;;22.64;45.17;95452.72;5004596;28;20887;-61
2021/11/20 01:42:07;;;;;;;3.83;2.70;;;;;;;22.63;45.13;95451.22;5003280;28;20033;-61
2021/11/20 01:44:48;;;;;;;4.95;2.63;;;;;;;22.62;45.25;95468.81;5005131;28;20032;-61
2021/11/20 01:47:24;;;;;;;3.25;2.35;;;;;;;22.61;45.39;95467.31;4986952;28;20025;-61
2021/11/20 01:49:55;;;;;;;3.67;2.60;;;;;;;22.61;45.23;95464.59;5004509;28;20052;-61
2021/11/20 01:53:15;;;;;;;3.70;2.63;;;;;;;22.60;45.31;95463.09;5004300;28;20052;-61
2021/11/20 01:55:45;;;;;;;3.60;2.50;;;;;;;22.58;45.26;95465.59;4943641;29;20034;-61
2021/11/20 01:58:25;;;;;;;3.88;2.70;;;;;;;22.57;45.39;95458.66;4993611;28;20038;-61
2021/11/20 02:01:21;;;;;;;4.40;2.78;;;;;;;22.56;44.98;95454.47;5002981;28;20033;-61
2021/11/20 02:03:50;;;;;;;3.45;2.42;;;;;;;22.56;45.18;95446.28;5004006;28;20583;-61
2021/11/20 02:06:25;;;;;;;3.92;2.50;;;;;;;22.55;45.09;95447.53;4987006;28;20037;-61
2021/11/20 02:08:57;;;;;;;4.05;2.80;;;;;;;22.55;45.10;95442.81;4986822;28;20121;-61
2021/11/20 02:11:28;;;;;;;3.80;2.50;;;;;;;22.55;45.27;95439.34;5002620;28;20034;-61
2021/11/20 02:13:54;;;;;;;3.75;2.80;;;;;;;22.54;45.33;95426.97;5004531;28;20057;-61
2021/11/20 02:16:33;;;;;;;3.55;2.75;;;;;;;22.54;45.23;95437.84;5004297;28;20060;-61
2021/11/20 02:19:00;;;;;;;3.33;2.63;;;;;;;22.52;45.07;95424.00;4987283;28;20030;-61
2021/11/20 02:21:36;;;;;;;3.78;2.40;;;;;;;22.49;45.17;95425.00;4986419;28;20177;-61
2021/11/20 02:24:02;;;;;;;3.47;2.63;;;;;;;22.50;45.09;95426.50;5003296;28;20022;-61
2021/11/20 02:26:27;;;;;;;3.97;2.78;;;;;;;22.49;45.08;95425.72;5003977;28;20026;-62
2021/11/20 02:28:53;;;;;;;4.22;2.67;;;;;;;22.48;45.08;95428.94;5004059;28;20068;-61
2021/11/20 02:31:18;;;;;;;4.22;2.63;;;;;;;22.49;45.00;95414.09;5004684;28;20099;-61
2021/11/20 02:33:44;;;;;;;3.58;2.65;;;;;;;22.47;45.04;95416.59;5007385;28;20113;-61
2021/11/20 02:36:21;;;;;;;3.25;2.40;;;;;;;22.48;45.14;95423.50;4990004;28;20036;-61
2021/11/20 02:39:07;;;;;;;3.28;2.55;;;;;;;22.46;45.14;95417.81;4989664;28;20021;-61
2021/11/20 02:41:34;;;;;;;3.70;2.85;;;;;;;22.45;45.22;95413.59;5007378;28;20030;-61
2021/11/20 02:44:03;;;;;;;5.18;2.60;;;;;;;22.46;45.28;95409.66;5007476;28;20109;-61
2021/11/20 02:46:34;;;;;;;3.40;2.50;;;;;;;22.45;45.16;95402.72;5006459;28;20385;-61
2021/11/20 02:48:59;;;;;;;3.25;2.42;;;;;;;22.45;45.14;95419.03;4990237;28;20109;-61
2021/11/20 02:51:27;;;;;;;4.10;2.92;;;;;;;22.44;44.96;95401.25;5007296;28;20022;-61
2021/11/20 02:53:59;;;;;;;4.25;2.78;;;;;;;22.42;45.02;95401.00;5009189;28;20045;-61
2021/11/20 02:56:26;;;;;;;3.20;2.20;;;;;;;22.41;44.94;95396.78;5009184;28;20042;-61
2021/11/20 02:58:52;;;;;;;3.58;2.53;;;;;;;22.42;45.25;95395.56;5006523;28;20835;-61
2021/11/20 03:01:22;;;;;;;3.83;2.67;;;;;;;22.42;45.16;95398.28;5007198;28;20037;-61
2021/11/20 03:03:47;;;;;;;3.47;2.65;;;;;;;22.41;45.06;95402.22;5007060;28;20145;-61
2021/11/20 03:06:13;;;;;;;3.90;2.72;;;;;;;22.40;45.31;95395.28;5007181;28;20033;-60
2021/11/20 03:08:38;;;;;;;3.20;2.63;;;;;;;22.40;44.98;95394.56;5007370;28;20124;-61
2021/11/20 03:11:04;;;;;;;3.58;2.78;;;;;;;22.40;45.25;95387.13;5006854;28;20045;-61
2021/11/20 03:13:30;;;;;;;4.10;2.85;;;;;;;22.38;44.93;95376.00;5006850;28;20557;-61
2021/11/20 03:15:55;;;;;;;3.38;2.78;;;;;;;22.38;44.99;95384.19;4989346;28;20061;-61
2021/11/20 03:18:20;;;;;;;3.88;2.72;;;;;;;22.35;44.88;95387.88;5005384;28;20084;-61
2021/11/20 03:20:46;;;;;;;3.70;2.67;;;;;;;22.38;45.14;95397.78;5006467;28;20091;-61
2021/11/20 03:23:18;;;;;;;3.65;2.67;;;;;;;22.38;45.01;95386.91;5006757;28;20079;-61
2021/11/20 03:25:43;;;;;;;3.70;2.83;;;;;;;22.37;44.84;95393.56;5005204;28;20034;-62
2021/11/20 03:28:09;;;;;;;3.70;2.60;;;;;;;22.37;44.93;95390.09;5006565;28;20041;-63
2021/11/20 03:30:34;;;;;;;4.10;2.65;;;;;;;22.36;44.91;95388.63;5006579;28;20057;-61
2021/11/20 03:33:00;;;;;;;3.78;2.65;;;;;;;22.34;44.99;95383.66;4988920;28;20030;-61
2021/11/20 03:35:25;;;;;;;3.97;2.80;;;;;;;22.36;45.04;95386.66;4988901;28;20038;-61
2021/11/20 03:37:52;;;;;;;3.95;3.10;;;;;;;22.34;45.02;95386.38;5005467;28;20029;-61
2021/11/20 03:40:18;;;;;;;3.70;2.63;;;;;;;22.34;44.91;95402.72;5006174;28;20034;-61
2021/11/20 03:42:43;;;;;;;3.53;2.50;;;;;;;22.33;44.82;95401.25;4988510;28;20061;-60
2021/11/20 03:45:09;;;;;;;4.05;2.70;;;;;;;22.34;44.74;95408.16;5006329;28;20034;-60
2021/11/20 03:47:35;;;;;;;4.00;2.83;;;;;;;22.33;44.78;95393.09;5004913;28;20034;-61
2021/11/20 03:50:01;;;;;;;3.08;2.35;;;;;;;22.34;44.78;95413.59;5006220;28;20034;-60
2021/11/20 03:52:27;;;;;;;3.92;2.95;;;;;;;22.33;44.92;95412.13;5005994;28;20025;-61
2021/11/20 03:54:53;;;;;;;4.32;2.58;;;;;;;22.32;44.91;95413.34;5005869;28;20492;-61
2021/11/20 03:57:18;;;;;;;3.28;2.50;;;;;;;22.33;44.83;95411.38;5006267;28;20076;-61
2021/11/20 03:59:44;;;;;;;4.38;2.67;;;;;;;22.31;44.98;95420.03;5005776;28;20104;-61
2021/11/20 04:02:09;;;;;;;3.88;2.65;;;;;;;22.31;44.82;95420.03;5005680;28;20419;-62
2021/11/20 04:04:35;;;;;;;3.95;2.90;;;;;;;22.31;44.74;95419.28;5005797;28;20463;-61
2021/11/20 04:07:02;;;;;;;3.30;2.40;;;;;;;22.29;44.77;95406.19;5004839;28;20474;-61
2021/11/20 04:09:28;;;;;;;4.53;2.80;;;;;;;22.28;44.66;95399.25;5005949;28;20076;-61
2021/11/20 04:11:53;;;;;;;3.20;2.83;;;;;;;22.29;44.72;95417.06;5005829;28;20041;-61
2021/11/20 04:14:19;;;;;;;3.72;2.70;;;;;;;22.28;44.68;95410.13;5004336;28;20041;-61
2021/11/20 04:16:45;;;;;;;3.40;2.60;;;;;;;22.28;44.64;95415.56;5005624;28;20026;-61
2021/11/20 04:19:10;;;;;;;2.67;2.28;;;;;;;22.29;44.82;95417.06;5005711;28;20415;-61
2021/11/20 04:21:36;;;;;;;3.45;2.33;;;;;;;22.27;44.74;95419.53;5005485;28;20053;-61
2021/11/20 04:24:02;;;;;;;4.03;2.88;;;;;;;22.27;44.77;95419.53;5005539;28;20030;-61
2021/11/20 04:26:28;;;;;;;3.92;2.97;;;;;;;22.26;44.64;95428.91;5006179;28;20095;-61
2021/11/20 04:28:53;;;;;;;3.83;2.63;;;;;;;22.26;44.40;95431.66;5007589;28;20444;-61
2021/11/20 04:31:19;;;;;;;3.72;2.60;;;;;;;22.26;44.70;95423.47;5007335;28;20026;-61
2021/11/20 04:33:45;;;;;;;2.97;2.42;;;;;;;22.26;44.65;95418.03;5007548;28;20456;-61
2021/11/20 04:36:11;;;;;;;3.72;2.70;;;;;;;22.27;44.72;95430.41;5006566;28;20038;-61
2021/11/20 04:38:36;;;;;;;4.47;2.90;;;;;;;22.25;44.52;95416.53;5004240;28;20026;-61
2021/11/20 04:41:02;;;;;;;3.45;2.33;;;;;;;22.24;44.48;95417.78;4987214;28;20091;-61
2021/11/20 04:43:28;;;;;;;3.33;2.50;;;;;;;22.26;44.46;95422.75;5004119;28;20025;-61
2021/11/20 04:45:53;;;;;;;3.72;2.83;;;;;;;22.24;44.62;95415.09;5005112;28;20041;-61
2021/11/20 04:48:19;;;;;;;3.88;2.50;;;;;;;22.23;44.58;95401.97;5005228;28;20026;-61
2021/11/20 04:50:45;;;;;;;4.25;2.67;;;;;;;22.24;44.52;95404.19;5005008;28;20084;-61
2021/11/20 04:53:11;;;;;;;3.22;2.38;;;;;;;22.23;44.52;95402.69;5005283;28;20029;-61
2021/11/20 04:55:36;;;;;;;3.70;2.60;;;;;;;22.23;44.60;95397.25;5003280;28;20111;-61
2021/11/20 04:58:02;;;;;;;3.60;2.50;;;;;;;22.23;44.38;95391.81;5004789;28;20062;-61
2021/11/20 05:00:50;;;;;;;4.07;2.80;;;;;;;22.23;44.37;95385.66;5005008;28;20026;-61
2021/11/20 05:03:16;;;;;;;3.65;2.50;;;;;;;22.21;44.82;95388.84;4987544;28;20115;-60
2021/11/20 05:05:42;;;;;;;3.40;2.60;;;;;;;22.20;44.38;95387.34;5003256;28;20033;-61
2021/11/20 05:08:08;;;;;;;4.88;2.83;;;;;;;22.21;44.57;95377.97;5003445;28;20026;-61
2021/11/20 05:10:34;;;;;;;2.80;2.17;;;;;;;22.21;44.48;95383.41;5004667;28;20403;-61
2021/11/20 05:12:59;;;;;;;3.83;2.53;;;;;;;22.21;44.50;95377.97;5005061;28;20038;-60
2021/11/20 05:15:25;;;;;;;3.42;2.42;;;;;;;22.20;44.49;95371.00;5004718;28;20037;-61
2021/11/20 05:17:51;;;;;;;3.72;2.30;;;;;;;22.19;44.56;95380.41;5004955;28;20036;-61
2021/11/20 05:20:16;;;;;;;3.38;2.60;;;;;;;22.19;44.45;95374.97;4986960;28;20030;-61
2021/11/20 05:22:42;;;;;;;3.67;2.80;;;;;;;22.18;44.45;95378.94;5004745;28;20740;-62
2021/11/20 05:25:08;;;;;;;3.55;2.50;;;;;;;22.19;44.44;95374.22;5004347;28;20409;-60
2021/11/20 05:27:34;;;;;;;3.72;2.90;;;;;;;22.19;44.56;95376.94;5004718;28;20119;-61
2021/11/20 05:30:10;;;;;;;3.45;2.75;;;;;;;22.17;44.46;95372.00;5004319;28;20025;-61
2021/11/20 05:32:36;;;;;;;3.20;2.55;;;;;;;22.17;44.48;95372.00;5004799;28;20026;-61
2021/11/20 05:35:01;;;;;;;3.70;2.70;;;;;;;22.17;44.32;95380.16;5004634;28;20029;-61
2021/11/20 05:37:27;;;;;;;3.40;2.35;;;;;;;22.17;44.64;95366.56;5005021;28;20443;-61
2021/11/20 05:39:52;;;;;;;3.10;2.70;;;;;;;22.15;44.33;95385.34;5004497;28;20026;-61
2021/11/20 05:42:18;;;;;;;4.18;2.60;;;;;;;22.17;44.39;95380.16;5002532;28;20559;-60
2021/11/20 05:44:43;;;;;;;6.82;3.28;;;;;;;21.95;41.36;95388.25;5001852;28;20029;-61
2021/11/20 05:47:09;;;;;;;4.43;2.55;;;;;;;22.07;43.68;95389.78;4998473;28;20491;-60
2021/11/20 05:49:37;;;;;;;4.05;2.47;;;;;;;22.14;44.56;95400.19;5003223;28;20057;-61
2021/11/20 05:52:03;;;;;;;4.28;2.45;;;;;;;22.22;44.71;95395.75;5017878;28;20044;-61
2021/11/20 05:54:29;;;;;;;3.83;2.60;;;;;;;22.28;44.69;95415.56;5014396;28;20027;-62
2021/11/20 05:56:54;;;;;;;3.03;2.25;;;;;;;22.35;44.42;95420.53;4981029;28;20060;-62
2021/11/20 05:59:20;;;;;;;3.35;2.53;;;;;;;22.44;44.53;95420.28;5002533;28;20028;-62
2021/11/20 06:01:48;;;;;;;3.45;2.40;;;;;;;22.50;44.37;95421.03;5001253;28;20033;-62
2021/11/20 06:04:14;;;;;;;4.63;2.88;;;;;;;22.60;44.18;95419.56;4995690;28;20041;-62
2021/11/20 06:06:40;;;;;;;4.18;2.63;;;;;;;22.69;44.06;95409.19;4995877;28;20398;-62
2021/11/20 06:09:06;;;;;;;3.22;2.40;;;;;;;22.82;43.67;95408.69;5001882;28;20552;-62
2021/11/20 06:11:31;;;;;;;3.50;2.10;;;;;;;22.90;43.70;95394.81;4981116;28;20034;-63
2021/11/20 06:13:57;;;;;;;3.58;2.25;;;;;;;23.03;43.32;95397.81;4969016;28;20031;-65
2021/11/20 06:16:22;;;;;;;3.17;2.38;;;;;;;23.14;43.03;95397.78;4985070;28;20256;-63
2021/11/20 06:18:48;;;;;;;3.78;2.60;;;;;;;23.27;43.27;95392.53;4988304;28;20030;-66
2021/11/20 06:21:13;;;;;;;3.83;2.22;;;;;;;23.38;42.49;95395.25;4981305;28;20667;-64
2021/11/20 06:23:39;;;;;;;10.65;6.90;;;;;;;23.48;42.58;95399.16;4968437;28;20568;-63
2021/11/20 06:26:05;;;;;;;17.58;11.38;;;;;;;23.61;42.06;95396.66;4978603;28;20492;-61
2021/11/20 06:28:31;;;;;;;26.17;15.80;;;;;;;23.70;42.24;95393.69;4968432;28;20034;-62
2021/11/20 06:30:58;;;;;;;27.13;16.33;;;;;;;23.84;41.78;95409.00;4975934;28;20420;-61
2021/11/20 06:33:24;;;;;;;25.35;15.27;;;;;;;23.96;41.70;95408.44;4970356;28;20113;-64
2021/11/20 06:35:49;;;;;;;22.70;15.70;;;;;;;24.06;41.43;95415.81;4966949;28;20511;-65
2021/11/20 06:38:15;;;;;;;25.17;14.80;;;;;;;24.17;41.71;95399.41;4968236;28;20140;-63
2021/11/20 06:40:43;;;;;;;24.00;14.10;;;;;;;24.26;40.96;95412.75;4966940;28;20030;-66
2021/11/20 06:43:09;;;;;;;20.75;13.38;;;;;;;24.31;41.04;95414.69;4967040;28;20039;-65
2021/11/20 06:45:37;;;;;;;22.55;13.95;;;;;;;24.42;41.18;95414.66;4966763;28;20572;-65
2021/11/20 06:48:05;;;;;;;22.48;14.02;;;;;;;24.48;40.79;95423.53;4966812;28;20489;-66
2021/11/20 06:50:31;;;;;;;20.50;12.70;;;;;;;24.49;40.70;95419.56;4968220;28;20030;-66
2021/11/20 06:52:57;;;;;;;18.77;12.95;;;;;;;24.58;40.82;95427.47;4967801;28;20031;-66
2021/11/20 06:55:23;;;;;;;20.08;12.82;;;;;;;24.64;40.79;95422.69;4972544;28;20023;-67
2021/11/20 06:57:55;;;;;;;20.00;13.10;;;;;;;24.71;40.59;95419.41;5004096;28;20116;-67
2021/11/20 07:00:28;;;;;;;19.10;12.20;;;;;;;24.79;40.37;95425.81;4990301;28;20030;-65
2021/11/20 07:03:03;;;;;;;17.92;11.82;;;;;;;24.84;39.83;95417.56;4980038;28;20089;-67
2021/11/20 07:05:33;;;;;;;18.48;12.32;;;;;;;24.92;40.01;95424.69;4994611;28;20408;-62
2021/11/20 07:07:59;;;;;;;18.73;11.90;;;;;;;24.96;39.97;95410.75;5003673;28;20031;-61
2021/11/20 07:10:25;;;;;;;17.90;11.18;;;;;;;24.97;39.64;95404.78;4999482;28;20111;-61
2021/11/20 07:12:51;;;;;;;16.77;10.68;;;;;;;25.07;39.45;95403.25;5004188;28;20026;-62
2021/11/20 07:15:17;;;;;;;14.90;9.98;;;;;;;25.06;39.05;95399.03;4998546;28;20034;-61
2021/11/20 07:17:43;;;;;;;16.55;10.73;;;;;;;25.11;39.23;95403.72;5003911;28;20527;-61
2021/11/20 07:20:08;;;;;;;16.75;11.15;;;;;;;25.16;39.13;95397.44;4993110;28;20476;-61
2021/11/20 07:22:34;;;;;;;15.38;10.25;;;;;;;25.21;38.83;95393.91;4997064;28;20072;-62
2021/11/20 07:25:00;;;;;;;15.60;9.75;;;;;;;25.26;39.10;95390.41;5000900;28;20485;-61
2021/11/20 07:27:26;;;;;;;16.02;9.70;;;;;;;25.27;38.56;95394.59;5001699;28;20032;-60
2021/11/20 07:29:51;;;;;;;13.93;9.77;;;;;;;25.32;38.55;95388.34;4999356;28;20080;-61
2021/11/20 07:32:17;;;;;;;14.50;9.73;;;;;;;25.33;38.73;95392.53;5001963;28;20030;-61
2021/11/20 07:34:42;;;;;;;16.33;9.27;;;;;;;25.34;38.58;95392.03;4993900;28;20700;-61
2021/11/20 07:37:08;;;;;;;14.77;9.73;;;;;;;25.41;38.20;95399.66;4997443;28;20026;-61
2021/11/20 07:39:34;;;;;;;13.23;9.02;;;;;;;25.40;38.69;95391.97;5000602;28;20477;-61
2021/11/20 07:42:00;;;;;;;13.73;9.07;;;;;;;25.39;38.41;95393.22;5001902;28;20087;-61
2021/11/20 07:44:25;;;;;;;14.80;9.55;;;;;;;25.43;38.77;95401.91;4998202;28;20053;-61
2021/11/20 07:46:50;;;;;;;13.30;8.20;;;;;;;25.45;38.28;95404.84;5000482;28;20361;-61
2021/11/20 07:49:16;;;;;;;14.45;8.88;;;;;;;25.52;38.25;95409.75;5002810;28;20033;-61
2021/11/20 07:51:41;;;;;;;12.27;8.35;;;;;;;25.53;38.16;95411.22;4997937;28;20026;-61
2021/11/20 07:54:07;;;;;;;11.52;8.25;;;;;;;25.55;38.09;95419.66;5002416;28;20041;-61
2021/11/20 07:56:35;;;;;;;11.60;8.23;;;;;;;25.60;37.83;95421.59;4995886;28;20042;-62
2021/11/20 07:59:00;;;;;;;12.90;8.10;;;;;;;25.57;37.72;95414.41;5003912;28;20083;-62
2021/11/20 08:01:26;;;;;;;11.48;7.40;;;;;;;25.61;37.81;95417.63;4984105;28;20026;-61
2021/11/20 08:03:52;;;;;;;10.82;7.47;;;;;;;25.63;38.03;95421.28;4981423;28;20055;-61
2021/11/20 08:06:17;;;;;;;12.27;8.15;;;;;;;25.68;37.46;95422.53;4996839;28;20033;-62
2021/11/20 08:08:43;;;;;;;9.40;6.93;;;;;;;25.70;37.52;95403.63;5005187;28;20638;-64
2021/11/20 08:11:09;;;;;;;10.95;7.50;;;;;;;25.69;37.74;95418.53;5000636;28;20419;-63
2021/11/20 08:13:35;;;;;;;10.93;6.93;;;;;;;25.79;37.48;95410.19;4988919;28;20042;-63
2021/11/20 08:16:02;;;;;;;12.27;7.50;;;;;;;25.75;37.68;95424.69;5004089;28;20033;-62
2021/11/20 08:18:27;;;;;;;9.90;7.22;;;;;;;25.83;37.35;95418.88;4988367;28;20113;-61
2021/11/20 08:20:53;;;;;;;10.30;7.00;;;;;;;25.83;37.25;95402.44;4978795;28;20152;-61
2021/11/20 08:23:18;;;;;;;9.90;6.78;;;;;;;25.89;37.32;95405.84;4971550;28;20034;-62
2021/11/20 08:25:45;;;;;;;10.48;6.90;;;;;;;25.82;37.28;95416.63;4997742;28;20092;-62
2021/11/20 08:28:13;;;;;;;11.05;7.03;;;;;;;25.83;37.25;95407.91;5000318;28;20049;-62
2021/11/20 08:30:38;;;;;;;9.38;6.45;;;;;;;25.82;37.39;95406.44;4980471;28;20030;-61
2021/11/20 08:33:04;;;;;;;10.73;7.05;;;;;;;25.86;37.16;95412.34;4975393;28;20125;-62
2021/11/20 08:35:30;;;;;;;10.60;6.00;;;;;;;25.85;37.30;95410.88;4972220;28;20014;-62
2021/11/20 08:37:55;;;;;;;8.70;5.97;;;;;;;25.89;37.24;95405.84;4986469;28;20452;-63
2021/11/20 08:40:25;;;;;;;10.60;5.88;;;;;;;25.97;37.10;95400.53;4960161;28;20141;-62
2021/11/20 08:42:50;;;;;;;19.50;6.38;;;;;;;26.00;37.22;95408.44;5014455;28;20064;-61
2021/11/20 08:45:19;;;;;;;9.27;5.75;;;;;;;26.03;36.94;95399.19;4986324;28;20029;-61
2021/11/20 08:47:45;;;;;;;10.88;6.13;;;;;;;26.01;37.14;95407.19;4982545;28;20097;-63
2021/11/20 08:50:13;;;;;;;9.65;5.95;;;;;;;26.04;37.05;95411.63;4986780;28;20037;-61
2021/11/20 08:52:39;;;;;;;9.45;6.20;;;;;;;26.10;37.00;95409.56;4979092;28;20062;-61
2021/11/20 08:55:05;;;;;;;11.23;6.47;;;;;;;26.08;37.17;95417.53;4986077;28;20030;-61
2021/11/20 08:57:30;;;;;;;11.45;6.32;;;;;;;26.08;36.72;95400.38;4993067;28;20100;-62
2021/11/20 08:59:56;;;;;;;8.30;5.43;;;;;;;26.11;36.94;95394.59;5016829;28;20041;-61
2021/11/20 09:02:31;;;;;;;10.45;5.95;;;;;;;26.16;36.80;95396.56;4975832;28;20033;-62
2021/11/20 09:05:06;;;;;;;8.30;5.28;;;;;;;26.11;36.84;95394.59;4987452;28;20117;-61
2021/11/20 09:07:57;;;;;;;8.02;5.53;;;;;;;26.09;36.67;95402.59;4993610;28;20030;-61
2021/11/20 09:10:50;;;;;;;8.85;5.28;;;;;;;26.08;36.70;95406.59;4987244;28;20065;-61
2021/11/20 09:13:35;;;;;;;9.73;5.90;;;;;;;26.06;36.87;95403.63;4998599;28;20033;-61
2021/11/20 09:16:07;;;;;;;10.38;6.00;;;;;;;26.09;36.86;95408.09;4998377;28;20048;-62
2021/11/20 09:18:32;;;;;;;8.95;5.95;;;;;;;26.04;36.62;95402.69;4988560;28;20018;-61
2021/11/20 09:20:59;;;;;;;9.80;5.57;;;;;;;26.10;36.76;95404.09;4953500;28;20037;-60
2021/11/20 09:23:24;;;;;;;7.85;5.32;;;;;;;26.12;36.73;95401.56;4976453;28;20029;-61
2021/11/20 09:25:53;;;;;;;9.30;5.05;;;;;;;26.12;36.84;95412.53;4989762;28;20398;-61
2021/11/20 09:28:19;;;;;;;8.73;5.30;;;;;;;26.11;36.79;95405.56;4992871;28;20041;-60
2021/11/20 09:30:46;;;;;;;8.93;5.38;;;;;;;26.14;36.77;95404.53;4996733;28;20038;-61
2021/11/20 09:33:12;;;;;;;10.85;5.63;;;;;;;26.16;36.64;95396.56;5023028;28;20048;-61
2021/11/20 09:35:39;;;;;;;8.98;5.40;;;;;;;26.12;36.68;95390.63;5009199;28;20514;-64
2021/11/20 09:38:05;;;;;;;9.05;5.43;;;;;;;26.10;36.76;95387.66;4992778;28;20068;-61
2021/11/20 09:40:31;;;;;;;8.25;5.38;;;;;;;26.14;36.67;95393.56;4971995;28;20733;-61
2021/11/20 09:42:59;;;;;;;9.40;4.95;;;;;;;26.12;36.67;95385.16;4997153;28;20471;-61
2021/11/20 09:45:37;;;;;;;8.38;4.88;;;;;;;26.15;36.70;95375.91;4976770;28;20037;-62
2021/11/20 09:48:16;;;;;;;12.32;5.13;;;;;;;26.11;36.57;95378.19;5008229;28;20033;-62
2021/11/20 09:50:44;;;;;;;8.45;5.03;;;;;;;26.08;36.71;95379.22;4989023;28;20554;-61
2021/11/20 09:53:10;;;;;;;8.95;4.82;;;;;;;26.10;36.65;95376.72;5000404;28;20717;-62
2021/11/20 09:55:48;;;;;;;7.90;4.72;;;;;;;26.14;36.52;95377.16;4949572;28;20042;-62
2021/11/20 09:58:19;;;;;;;7.32;4.85;;;;;;;26.15;36.74;95369.69;4980046;28;20030;-61
2021/11/20 10:01:17;;;;;;;8.75;5.05;;;;;;;26.15;36.35;95370.41;4979411;28;20740;-62
2021/11/20 10:03:48;;;;;;;7.50;5.20;;;;;;;26.15;36.83;95356.00;4991212;28;20524;-61
2021/11/20 10:06:20;;;;;;;8.10;4.95;;;;;;;26.17;36.51;95359.69;4978332;28;20041;-62
2021/11/20 10:08:45;;;;;;;8.30;4.78;;;;;;;26.15;36.44;95362.22;4991112;28;20034;-61
2021/11/20 10:11:29;;;;;;;8.20;4.28;;;;;;;26.17;36.77;95359.69;4979461;28;20058;-61
2021/11/20 10:13:59;;;;;;;7.43;4.53;;;;;;;26.16;36.32;95358.22;4988253;28;20041;-60
2021/11/20 10:16:30;;;;;;;7.47;4.43;;;;;;;26.15;36.53;95361.47;4997122;28;20041;-60
2021/11/20 10:19:25;;;;;;;6.78;4.20;;;;;;;26.16;36.42;95346.50;4989761;28;20022;-61
2021/11/20 10:22:00;;;;;;;8.45;4.43;;;;;;;26.19;36.24;95362.66;4993685;28;20033;-61
2021/11/20 10:24:49;;;;;;;6.63;4.15;;;;;;;26.25;36.26;95355.09;4988035;28;20026;-62
2021/11/20 10:27:20;;;;;;;8.82;4.63;;;;;;;26.20;36.51;95353.16;4998416;28;20771;-61
2021/11/20 10:30:15;;;;;;;6.88;4.40;;;;;;;26.24;36.21;95364.56;5005966;28;20459;-60
2021/11/20 10:32:50;;;;;;;12.27;4.75;;;;;;;26.22;36.37;95355.38;5004035;28;20022;-61
2021/11/20 10:35:37;;;;;;;8.10;4.35;;;;;;;26.21;36.42;95354.66;5014975;28;20196;-61
2021/11/20 10:38:07;;;;;;;7.05;4.05;;;;;;;26.21;36.61;95351.19;4981645;28;20022;-61
2021/11/20 10:40:44;;;;;;;7.88;4.30;;;;;;;26.21;36.78;95340.97;4968319;28;20072;-62
2021/11/20 10:43:34;;;;;;;6.85;4.05;;;;;;;26.24;36.77;95344.69;4999233;28;20091;-61
2021/11/20 10:46:18;;;;;;;8.25;4.47;;;;;;;26.27;36.61;95336.16;5000974;28;20492;-61
2021/11/20 10:49:04;;;;;;;9.15;4.55;;;;;;;26.27;36.79;95325.97;5002618;28;20040;-61
2021/11/20 10:51:45;;;;;;;8.63;4.03;;;;;;;26.28;36.61;95326.72;5010759;28;20033;-61
2021/11/20 10:54:31;;;;;;;6.63;3.85;;;;;;;26.26;36.53;95318.22;5024767;28;20605;-62
2021/11/20 10:57:16;;;;;;;7.57;4.07;;;;;;;26.23;36.73;95319.28;5002827;28;20036;-61
2021/11/20 10:59:59;;;;;;;7.65;3.88;;;;;;;26.25;36.72;95338.69;4991393;28;20017;-61
2021/11/20 11:02:35;;;;;;;6.28;3.83;;;;;;;26.31;36.67;95326.41;5006541;28;20700;-63
2021/11/20 11:05:26;;;;;;;7.55;3.90;;;;;;;26.26;36.53;95323.72;5004333;28;20117;-61
2021/11/20 11:08:00;;;;;;;7.28;4.45;;;;;;;26.25;36.75;95322.25;5004874;28;20172;-62
2021/11/20 11:10:34;;;;;;;7.88;4.30;;;;;;;26.27;36.51;95319.72;5002179;28;20045;-62
2021/11/20 11:13:09;;;;;;;7.65;4.45;;;;;;;26.26;36.73;95326.44;4969310;28;20318;-62
2021/11/20 11:15:53;;;;;;;5.88;3.60;;;;;;;26.26;36.74;95329.19;4972425;28;20027;-62
2021/11/20 11:18:29;;;;;;;6.85;4.13;;;;;;;26.26;36.61;95317.50;5019494;28;20026;-62
2021/11/20 11:21:13;;;;;;;7.57;4.10;;;;;;;26.24;36.55;95320.75;5009924;28;20548;-61
2021/11/20 11:24:03;;;;;;;7.03;3.70;;;;;;;26.27;36.58;95319.72;4981298;28;20048;-61
2021/11/20 11:26:29;;;;;;;7.18;3.95;;;;;;;26.28;36.66;95318.50;4988646;28;20195;-61
2021/11/20 11:28:56;;;;;;;7.00;3.88;;;;;;;26.35;36.55;95312.41;5004236;28;20464;-61
2021/11/20 11:31:27;;;;;;;8.45;4.18;;;;;;;26.39;36.30;95315.59;5001267;28;20451;-62
2021/11/20 11:34:22;;;;;;;5.55;3.33;;;;;;;26.51;36.21;95322.38;4990517;28;20022;-62
2021/11/20 11:37:09;;;;;;;7.57;3.95;;;;;;;26.56;36.17;95313.31;4990425;28;20496;-61
2021/11/20 11:39:47;;;;;;;6.18;4.00;;;;;;;26.72;36.12;95298.59;4976736;28;20029;-61
2021/11/20 11:42:22;;;;;;;7.45;3.63;;;;;;;26.75;35.79;95308.50;5018334;28;20157;-62
2021/11/20 11:45:12;;;;;;;6.35;3.92;;;;;;;26.75;35.89;95308.50;5005187;28;20026;-62